createdAt,value
2023-01-05T00:01:41.153Z,20.53
2023-01-05T00:04:09.963Z,26.80
2023-01-05T00:06:39.537Z,29.27
2023-01-05T00:09:08.502Z,21.53
2023-01-05T00:11:56.009Z,17.63
2023-01-05T00:14:44.031Z,17.37
2023-01-05T00:17:32.448Z,37.27
2023-01-05T00:20:30.520Z,22.27
2023-01-05T00:22:59.103Z,16.67
2023-01-05T00:25:29.616Z,19.70
2023-01-05T00:27:59.598Z,28.47
2023-01-05T00:30:30.571Z,24.90
2023-01-05T00:32:59.459Z,19.13
2023-01-05T00:35:29.912Z,24.30
2023-01-05T00:37:58.340Z,22.93
2023-01-05T00:40:26.847Z,23.83
2023-01-05T00:42:55.316Z,21.27
2023-01-05T00:45:25.202Z,27.83
2023-01-05T00:47:55.028Z,24.40
2023-01-05T00:50:23.844Z,19.17
2023-01-05T00:52:52.297Z,14.43
2023-01-05T00:55:20.895Z,18.57
2023-01-05T00:57:49.389Z,25.60
2023-01-05T01:00:19.790Z,15.87
2023-01-05T01:02:52.682Z,22.97
2023-01-05T01:05:21.265Z,30.80
2023-01-05T01:07:49.842Z,19.27
2023-01-05T01:10:18.777Z,22.37
2023-01-05T01:12:47.202Z,14.53
2023-01-05T01:15:15.712Z,20.50
2023-01-05T01:17:44.136Z,9.93
2023-01-05T01:20:13.984Z,24.87
2023-01-05T01:22:42.725Z,18.47
2023-01-05T01:25:11.393Z,22.97
2023-01-05T01:27:39.889Z,24.13
2023-01-05T01:30:09.892Z,22.23
2023-01-05T01:32:38.347Z,22.63
2023-01-05T01:35:08.486Z,25.80
2023-01-05T01:37:38.882Z,24.50
2023-01-05T01:40:08.727Z,23.00
2023-01-05T01:42:37.203Z,18.63
2023-01-05T01:45:18.577Z,27.20
2023-01-05T01:47:50.263Z,10.93
2023-01-05T01:50:23.566Z,28.87
2023-01-05T01:52:57.338Z,19.63
2023-01-05T01:55:27.191Z,25.73
2023-01-05T01:57:55.989Z,20.13
2023-01-05T02:00:24.726Z,18.43
2023-01-05T02:02:56.671Z,18.13
2023-01-05T02:05:30.670Z,37.20
2023-01-05T02:08:00.597Z,20.40
2023-01-05T02:10:40.249Z,23.80
2023-01-05T02:13:27.708Z,25.17
2023-01-05T02:16:07.130Z,24.90
2023-01-05T02:18:48.716Z,17.50
2023-01-05T02:21:26.137Z,19.83
2023-01-05T02:24:36.580Z,22.37
2023-01-05T02:27:36.987Z,22.77
2023-01-05T02:30:33.430Z,17.70
2023-01-05T02:33:09.958Z,17.83
2023-01-05T02:35:43.576Z,29.50
2023-01-05T02:38:17.434Z,23.20
2023-01-05T02:40:50.424Z,24.53
2023-01-05T02:43:21.699Z,21.63
2023-01-05T02:45:51.066Z,25.03
2023-01-05T02:48:20.922Z,20.83
2023-01-05T02:50:57.502Z,24.53
2023-01-05T02:53:31.593Z,25.03
2023-01-05T02:56:07.608Z,24.40
2023-01-05T02:58:42.537Z,34.67
2023-01-05T03:01:17.238Z,20.27
2023-01-05T03:03:53.570Z,18.53
2023-01-05T03:06:26.880Z,21.93
2023-01-05T03:08:57.978Z,16.50
2023-01-05T03:11:53.101Z,19.07
2023-01-05T03:14:30.540Z,16.90
2023-01-05T03:17:02.208Z,21.23
2023-01-05T03:19:39.745Z,20.30
2023-01-05T03:22:33.592Z,19.10
2023-01-05T03:25:21.059Z,22.93
2023-01-05T03:28:08.075Z,18.97
2023-01-05T03:31:03.094Z,18.07
2023-01-05T03:33:56.760Z,22.83
2023-01-05T03:36:31.430Z,25.67
2023-01-05T03:39:02.589Z,21.77
2023-01-05T03:41:35.077Z,13.17
2023-01-05T03:44:03.784Z,15.87
2023-01-05T03:46:36.216Z,16.30
2023-01-05T03:49:05.750Z,19.90
2023-01-05T03:51:41.507Z,20.30
2023-01-05T03:54:11.283Z,19.00
2023-01-05T03:56:42.049Z,13.30
2023-01-05T03:59:10.508Z,21.10
2023-01-05T04:01:41.192Z,16.53
2023-01-05T04:04:13.457Z,12.23
2023-01-05T04:06:43.343Z,22.07
2023-01-05T04:09:13.139Z,27.60
2023-01-05T04:11:43.711Z,27.10
2023-01-05T04:14:12.150Z,15.23
2023-01-05T04:16:40.914Z,14.93
2023-01-05T04:19:29.589Z,18.53
2023-01-05T04:21:59.786Z,19.07
2023-01-05T04:24:31.281Z,18.00
2023-01-05T04:27:02.058Z,28.10
2023-01-05T04:29:30.565Z,20.70
2023-01-05T04:32:00.721Z,12.63
2023-01-05T04:34:29.252Z,17.60
2023-01-05T04:37:00.856Z,21.13
2023-01-05T04:39:31.527Z,14.03
2023-01-05T04:42:00.119Z,22.27
2023-01-05T04:44:29.673Z,21.20
2023-01-05T04:47:00.107Z,15.83
2023-01-05T04:49:28.607Z,24.53
2023-01-05T04:51:57.362Z,24.80
2023-01-05T04:54:27.941Z,30.60
2023-01-05T04:56:56.424Z,16.53
2023-01-05T04:59:25.569Z,25.90
2023-01-05T05:01:55.829Z,20.67
2023-01-05T05:04:24.422Z,18.80
2023-01-05T05:06:52.973Z,15.60
2023-01-05T05:09:25.000Z,15.43
2023-01-05T05:11:55.484Z,19.37
2023-01-05T05:14:25.484Z,14.37
2023-01-05T05:16:55.484Z,22.90
2023-01-05T05:19:23.988Z,17.80
2023-01-05T05:21:52.619Z,21.77
2023-01-05T05:24:21.229Z,23.03
2023-01-05T05:26:51.550Z,19.93
2023-01-05T05:29:21.506Z,14.30
2023-01-05T05:31:50.170Z,16.20
2023-01-05T05:34:18.697Z,26.63
2023-01-05T05:36:47.197Z,26.53
2023-01-05T05:39:16.971Z,14.93
2023-01-05T05:41:45.431Z,23.77
2023-01-05T05:44:13.883Z,25.90
2023-01-05T05:46:43.746Z,18.67
2023-01-05T05:49:12.417Z,19.17
2023-01-05T05:51:40.839Z,14.80
2023-01-05T05:54:09.348Z,21.33
2023-01-05T05:56:37.784Z,22.60
2023-01-05T05:59:06.237Z,16.47
2023-01-05T06:01:34.795Z,23.93
2023-01-05T06:04:04.802Z,25.03
2023-01-05T06:06:33.352Z,22.77
2023-01-05T06:09:01.905Z,21.10
2023-01-05T06:11:30.478Z,12.47
2023-01-05T06:13:58.949Z,28.43
2023-01-05T06:16:27.441Z,21.73
2023-01-05T06:18:55.918Z,21.53
2023-01-05T06:21:25.824Z,24.50
2023-01-05T06:23:54.274Z,24.70
2023-01-05T06:26:22.715Z,23.20
2023-01-05T06:28:51.180Z,36.43
2023-01-05T06:31:19.736Z,22.70
2023-01-05T06:33:48.239Z,19.77
2023-01-05T06:36:16.650Z,21.30
2023-01-05T06:38:46.621Z,25.93
2023-01-05T06:41:15.077Z,18.27
2023-01-05T06:43:43.523Z,25.07
2023-01-05T06:46:12.047Z,23.50
2023-01-05T06:48:40.538Z,17.03
2023-01-05T06:51:08.967Z,25.30
2023-01-05T06:53:37.380Z,19.50
2023-01-05T06:56:07.728Z,25.90
2023-01-05T06:58:36.196Z,26.97
2023-01-05T07:01:04.827Z,18.23
2023-01-05T07:03:33.499Z,19.60
2023-01-05T07:06:01.976Z,26.23
2023-01-05T07:08:30.521Z,25.37
2023-01-05T07:10:58.961Z,21.00
2023-01-05T07:13:28.865Z,15.90
2023-01-05T07:15:57.395Z,15.20
2023-01-05T07:18:25.955Z,18.90
2023-01-05T07:20:54.483Z,14.13
2023-01-05T07:23:22.981Z,16.47
2023-01-05T07:25:51.484Z,25.40
2023-01-05T07:28:19.924Z,19.00
2023-01-05T07:30:53.685Z,18.63
2023-01-05T07:33:22.257Z,13.33
2023-01-05T07:35:50.777Z,18.93
2023-01-05T07:38:19.221Z,23.83
2023-01-05T07:40:47.781Z,28.53
2023-01-05T07:43:16.899Z,26.87
2023-01-05T07:45:45.417Z,24.17
2023-01-05T07:48:20.307Z,17.90
2023-01-05T07:50:51.947Z,16.83
2023-01-05T07:53:20.392Z,24.90
2023-01-05T07:55:57.928Z,18.77
2023-01-05T07:58:27.414Z,18.57
2023-01-05T08:00:56.061Z,19.20
2023-01-05T08:03:25.930Z,22.37
2023-01-05T08:05:54.372Z,22.90
2023-01-05T08:08:24.660Z,19.33
2023-01-05T08:10:53.450Z,21.07
2023-01-05T08:13:39.145Z,19.87
2023-01-05T08:16:08.228Z,15.27
2023-01-05T08:18:38.110Z,17.13
2023-01-05T08:21:08.579Z,15.47
2023-01-05T08:23:38.491Z,15.90
2023-01-05T08:26:08.361Z,20.47
2023-01-05T08:28:37.452Z,16.70
2023-01-05T08:31:08.261Z,20.47
2023-01-05T08:33:38.367Z,23.50
2023-01-05T08:36:09.846Z,22.00
2023-01-05T08:38:38.297Z,24.37
2023-01-05T08:41:07.085Z,18.47
2023-01-05T08:43:35.602Z,21.00
2023-01-05T08:46:04.203Z,20.37
2023-01-05T08:48:32.802Z,18.83
2023-01-05T08:51:03.712Z,15.87
2023-01-05T08:53:32.165Z,22.97
2023-01-05T08:56:00.666Z,22.23
2023-01-05T08:58:29.437Z,15.73
2023-01-05T09:00:58.075Z,26.53
2023-01-05T09:03:26.701Z,24.43
2023-01-05T09:05:59.302Z,22.30
2023-01-05T09:08:29.311Z,18.30
2023-01-05T09:11:06.402Z,23.67
2023-01-05T09:13:35.206Z,27.47
2023-01-05T09:16:08.892Z,24.87
2023-01-05T09:18:37.690Z,14.70
2023-01-05T09:21:07.050Z,28.47
2023-01-05T09:23:37.303Z,26.47
2023-01-05T09:26:07.423Z,23.83
2023-01-05T09:28:37.217Z,24.40
2023-01-05T09:31:10.076Z,14.37
2023-01-05T09:33:38.956Z,25.40
2023-01-05T09:36:08.851Z,22.03
2023-01-05T09:38:43.411Z,24.17
2023-01-05T09:41:23.623Z,23.17
2023-01-05T09:43:56.263Z,24.40
2023-01-05T09:46:28.589Z,25.30
2023-01-05T09:49:00.236Z,24.37
2023-01-05T09:51:29.681Z,26.77
2023-01-05T09:54:01.142Z,18.63
2023-01-05T09:57:08.074Z,14.93
2023-01-05T09:59:26.636Z,24.93
2023-01-05T10:02:00.103Z,24.03
2023-01-05T10:04:31.502Z,16.13
2023-01-05T10:07:03.813Z,18.80
2023-01-05T10:09:38.170Z,21.27
2023-01-05T10:12:36.113Z,26.80
2023-01-05T10:15:08.328Z,20.93
2023-01-05T10:17:42.864Z,13.37
2023-01-05T10:20:22.367Z,14.63
2023-01-05T10:23:01.607Z,21.23
2023-01-05T10:25:39.862Z,16.80
2023-01-05T10:28:27.541Z,21.53
2023-01-05T10:30:59.591Z,12.83
2023-01-05T10:33:51.985Z,24.83
2023-01-05T10:39:31.895Z,19.80
2023-01-05T10:42:06.986Z,14.20
2023-01-05T10:44:53.118Z,15.17
2023-01-05T10:47:22.829Z,21.07
2023-01-05T10:49:51.629Z,18.40
2023-01-05T10:52:23.412Z,15.17
2023-01-05T10:54:56.512Z,13.93
2023-01-05T10:57:42.981Z,15.47
2023-01-05T11:00:15.137Z,27.87
2023-01-05T11:02:49.699Z,27.13
2023-01-05T11:05:28.176Z,24.10
2023-01-05T11:08:00.238Z,27.17
2023-01-05T11:10:32.479Z,20.13
2023-01-05T11:13:06.558Z,15.00
2023-01-05T11:15:43.288Z,11.83
2023-01-05T11:18:25.778Z,23.47
2023-01-05T11:21:12.812Z,22.97
2023-01-05T11:23:43.760Z,23.33
2023-01-05T11:26:33.062Z,15.73
2023-01-05T11:29:06.595Z,13.50
2023-01-05T11:31:37.879Z,18.30
2023-01-05T11:34:15.345Z,18.97
2023-01-05T11:36:44.795Z,13.30
2023-01-05T11:39:26.769Z,22.43
2023-01-05T11:42:20.284Z,22.47
2023-01-05T11:44:57.066Z,10.27
2023-01-05T11:47:29.662Z,13.10
2023-01-05T11:50:07.034Z,22.07
2023-01-05T11:52:40.271Z,22.10
2023-01-05T11:55:35.339Z,13.90
2023-01-05T11:58:25.716Z,19.57
2023-01-05T12:01:31.531Z,15.13
2023-01-05T12:04:08.448Z,16.73
2023-01-05T12:07:01.051Z,24.90
2023-01-05T12:09:35.028Z,24.90
2023-01-05T12:12:27.956Z,27.57
2023-01-05T12:15:23.175Z,17.03
2023-01-05T12:18:00.110Z,25.80
2023-01-05T12:20:45.221Z,19.37
2023-01-05T12:23:33.341Z,23.80
2023-01-05T12:26:11.043Z,18.60
2023-01-05T12:30:24.663Z,18.10
2023-01-05T12:35:22.160Z,18.97
2023-01-05T12:38:07.509Z,29.20
2023-01-05T12:40:50.501Z,22.43
2023-01-05T12:43:28.987Z,16.93
2023-01-05T12:46:24.822Z,21.40
2023-01-05T12:48:57.285Z,13.53
2023-01-05T12:51:34.313Z,11.83
2023-01-05T12:54:09.541Z,22.67
2023-01-05T12:56:42.399Z,18.00
2023-01-05T12:59:17.002Z,21.30
2023-01-05T13:01:50.806Z,17.43
2023-01-05T13:04:41.282Z,18.00
2023-01-05T13:07:18.741Z,12.93
2023-01-05T13:10:02.108Z,21.07
2023-01-05T13:12:32.914Z,16.97
2023-01-05T13:15:17.834Z,20.57
2023-01-05T13:17:49.870Z,14.57
2023-01-05T13:20:27.157Z,15.67
2023-01-05T13:23:03.133Z,21.93
2023-01-05T13:25:37.349Z,22.13
2023-01-05T13:30:48.761Z,17.87
2023-01-05T13:33:38.028Z,21.03
2023-01-05T13:36:19.937Z,26.57
2023-01-05T13:39:19.643Z,24.70
2023-01-05T13:42:14.384Z,21.27
2023-01-05T13:45:10.755Z,28.60
2023-01-05T13:48:04.192Z,22.13
2023-01-05T13:51:07.335Z,25.93
2023-01-05T13:53:39.488Z,23.13
2023-01-05T13:56:16.471Z,26.93
2023-01-05T13:58:46.952Z,20.53
2023-01-05T14:01:18.159Z,21.57
2023-01-05T14:03:53.212Z,35.80
2023-01-05T14:06:25.017Z,25.70
2023-01-05T14:08:58.173Z,24.20
2023-01-05T14:11:29.549Z,22.67
2023-01-05T14:13:59.632Z,30.43
2023-01-05T14:16:50.621Z,36.60
2023-01-05T14:19:24.725Z,28.63
2023-01-05T14:22:30.556Z,17.00
2023-01-05T14:24:59.069Z,36.93
2023-01-05T14:27:29.002Z,33.23
2023-01-05T14:30:02.122Z,31.77
2023-01-05T14:32:32.889Z,22.60
2023-01-05T14:35:09.429Z,28.27
2023-01-05T14:37:41.554Z,27.70
2023-01-05T14:40:26.015Z,30.23
2023-01-05T14:42:56.410Z,21.93
2023-01-05T14:45:29.662Z,24.90
2023-01-05T14:47:59.898Z,29.27
2023-01-05T14:50:34.376Z,25.00
2023-01-05T14:53:07.205Z,27.00
2023-01-05T14:55:39.287Z,24.47
2023-01-05T14:58:15.796Z,23.53
2023-01-05T15:00:57.795Z,25.30
2023-01-05T15:03:36.741Z,21.63
2023-01-05T15:06:10.205Z,31.47
2023-01-05T15:09:22.224Z,28.97
2023-01-05T15:12:07.850Z,32.23
2023-01-05T15:15:13.453Z,27.43
2023-01-05T15:18:15.000Z,39.00
2023-01-05T15:21:09.662Z,21.60
2023-01-05T15:24:04.935Z,40.07
2023-01-05T15:26:53.931Z,43.70
2023-01-05T15:29:40.186Z,27.23
2023-01-05T15:32:16.105Z,37.53
2023-01-05T15:34:49.179Z,26.23
2023-01-05T15:37:23.681Z,21.57
2023-01-05T15:39:53.466Z,34.10
2023-01-05T15:42:25.905Z,30.73
2023-01-05T15:44:56.540Z,27.83
2023-01-05T15:47:29.530Z,35.83
2023-01-05T15:50:00.667Z,37.10
2023-01-05T15:52:35.238Z,24.70
2023-01-05T15:55:12.676Z,35.40
2023-01-05T15:57:41.123Z,38.60
2023-01-05T16:00:21.887Z,20.30
2023-01-05T16:02:52.012Z,21.13
2023-01-05T16:05:22.988Z,20.47
2023-01-05T16:07:56.135Z,30.70
2023-01-05T16:10:30.037Z,14.13
2023-01-05T16:13:04.024Z,15.17
2023-01-05T16:15:36.069Z,24.83
2023-01-05T16:18:08.607Z,22.63
2023-01-05T16:20:41.171Z,27.10
2023-01-05T16:23:22.896Z,13.80
2023-01-05T16:25:54.503Z,32.00
2023-01-05T16:28:24.986Z,29.33
2023-01-05T16:30:55.103Z,41.97
2023-01-05T16:33:34.672Z,25.97
2023-01-05T16:36:13.290Z,21.70
2023-01-05T16:38:42.532Z,33.03
2023-01-05T16:41:20.852Z,26.70
2023-01-05T16:43:55.726Z,29.27
2023-01-05T16:46:39.677Z,19.73
2023-01-05T16:49:27.348Z,29.17
2023-01-05T16:51:57.513Z,28.30
2023-01-05T16:54:36.197Z,30.83
2023-01-05T16:57:06.287Z,24.30
2023-01-05T16:59:44.243Z,24.43
2023-01-05T17:02:39.526Z,21.60
2023-01-05T17:05:10.344Z,25.40
2023-01-05T17:07:40.262Z,23.70
2023-01-05T17:10:15.513Z,21.27
2023-01-05T17:12:44.452Z,20.50
2023-01-05T17:15:21.902Z,23.40
2023-01-05T17:17:50.806Z,27.27
2023-01-05T17:20:20.598Z,21.70
2023-01-05T17:22:49.237Z,19.60
2023-01-05T17:25:18.063Z,30.93
2023-01-05T17:27:47.863Z,28.67
2023-01-05T17:30:20.920Z,32.40
2023-01-05T17:32:49.904Z,36.53
2023-01-05T17:35:20.136Z,32.07
2023-01-05T17:37:48.787Z,29.67
2023-01-05T17:40:20.782Z,38.10
2023-01-05T17:42:49.354Z,32.93
2023-01-05T17:45:20.061Z,36.83
2023-01-05T17:47:50.066Z,32.03
2023-01-05T17:50:23.330Z,33.20
2023-01-05T17:52:51.917Z,33.87
2023-01-05T17:55:20.525Z,31.50
2023-01-05T17:57:49.681Z,40.70
2023-01-05T18:00:22.045Z,39.00
2023-01-05T18:02:51.706Z,36.20
2023-01-05T18:05:22.745Z,29.30
2023-01-05T18:07:51.617Z,45.80
2023-01-05T18:10:22.450Z,39.80
2023-01-05T18:12:51.181Z,53.10
2023-01-05T18:15:19.903Z,40.23
2023-01-05T18:17:48.379Z,45.63
2023-01-05T18:20:20.111Z,38.20
2023-01-05T18:22:51.416Z,48.60
2023-01-05T18:25:19.958Z,37.33
2023-01-05T18:27:48.779Z,43.67
2023-01-05T18:30:17.290Z,68.17
2023-01-05T18:32:45.871Z,39.23
2023-01-05T18:35:14.891Z,43.27
2023-01-05T18:37:43.470Z,41.10
2023-01-05T18:40:14.195Z,44.73
2023-01-05T18:42:42.799Z,40.37
2023-01-05T18:45:20.191Z,40.03
2023-01-05T18:47:57.729Z,37.53
2023-01-05T18:50:26.677Z,48.83
2023-01-05T18:52:55.161Z,54.60
2023-01-05T18:55:24.956Z,38.13
2023-01-05T18:57:53.452Z,43.27
2023-01-05T19:00:22.032Z,40.93
2023-01-05T19:02:50.479Z,40.10
2023-01-05T19:05:18.955Z,32.40
2023-01-05T19:07:52.446Z,38.83
2023-01-05T19:10:21.770Z,39.03
2023-01-05T19:12:51.644Z,44.60
2023-01-05T19:15:20.081Z,34.57
2023-01-05T19:17:50.101Z,35.03
2023-01-05T19:20:18.573Z,35.03
2023-01-05T19:22:47.856Z,41.60
2023-01-05T19:25:16.829Z,38.63
2023-01-05T19:27:46.180Z,38.47
2023-01-05T19:30:17.736Z,30.87
2023-01-05T19:32:46.207Z,41.13
2023-01-05T19:35:15.224Z,38.10
2023-01-05T19:37:45.095Z,34.53
2023-01-05T19:40:14.512Z,38.67
2023-01-05T19:42:42.998Z,35.07
2023-01-05T19:45:12.193Z,41.83
2023-01-05T19:47:43.017Z,44.83
2023-01-05T19:50:12.827Z,46.70
2023-01-05T19:52:41.326Z,41.10
2023-01-05T19:55:11.893Z,36.70
2023-01-05T19:57:40.411Z,38.63
2023-01-05T20:00:10.183Z,42.90
2023-01-05T20:02:43.165Z,39.23
2023-01-05T20:05:13.954Z,42.10
2023-01-05T20:07:43.436Z,42.00
2023-01-05T20:10:14.417Z,36.13
2023-01-05T20:12:42.932Z,33.50
2023-01-05T20:15:13.183Z,29.73
2023-01-05T20:17:45.302Z,29.67
2023-01-05T20:20:14.375Z,33.17
2023-01-05T20:22:42.863Z,34.37
2023-01-05T20:25:11.404Z,37.10
2023-01-05T20:27:39.981Z,39.37
2023-01-05T20:30:09.891Z,44.47
2023-01-05T20:32:38.475Z,36.07
2023-01-05T20:35:08.911Z,34.40
2023-01-05T20:37:37.404Z,34.63
2023-01-05T20:40:06.695Z,33.67
2023-01-05T20:42:36.462Z,41.87
2023-01-05T20:45:05.985Z,28.37
2023-01-05T20:47:46.626Z,27.47
2023-01-05T20:50:17.170Z,23.77
2023-01-05T20:52:45.647Z,33.80
2023-01-05T20:55:16.717Z,28.67
2023-01-05T20:57:46.323Z,20.97
2023-01-05T21:00:16.606Z,27.10
2023-01-05T21:02:47.452Z,30.83
2023-01-05T21:05:17.569Z,26.37
2023-01-05T21:07:46.595Z,17.33
2023-01-05T21:10:15.251Z,16.33
2023-01-05T21:12:43.758Z,18.77
2023-01-05T21:15:12.349Z,23.83
2023-01-05T21:17:40.808Z,15.80
2023-01-05T21:20:09.811Z,20.17
2023-01-05T21:22:39.676Z,18.63
2023-01-05T21:25:08.668Z,17.47
2023-01-05T21:27:37.412Z,18.17
2023-01-05T21:30:07.017Z,15.17
2023-01-05T21:32:35.561Z,13.70
2023-01-05T21:35:04.748Z,15.30
2023-01-05T21:37:33.381Z,7.63
2023-01-05T21:40:03.253Z,16.00
2023-01-05T21:42:40.826Z,13.73
2023-01-05T21:45:11.008Z,16.00
2023-01-05T21:47:39.699Z,11.27
2023-01-05T21:50:10.017Z,13.97
2023-01-05T21:52:56.004Z,12.33
2023-01-05T21:55:43.745Z,6.33
2023-01-05T21:58:12.189Z,10.83
2023-01-05T22:00:40.763Z,8.47
2023-01-05T22:03:11.564Z,10.83
2023-01-05T22:05:40.041Z,11.47
2023-01-05T22:08:08.484Z,8.77
2023-01-05T22:10:38.325Z,17.50
2023-01-05T22:13:06.745Z,8.00
2023-01-05T22:15:35.188Z,5.57
2023-01-05T22:18:03.889Z,13.87
2023-01-05T22:20:32.313Z,13.20
2023-01-05T22:23:01.500Z,9.87
2023-01-05T22:25:29.989Z,7.07
2023-01-05T22:27:59.768Z,9.70
2023-01-05T22:30:28.293Z,8.77
2023-01-05T22:32:58.142Z,8.83
2023-01-05T22:35:26.686Z,11.90
2023-01-05T22:37:56.815Z,3.87
2023-01-05T22:40:25.311Z,5.97
2023-01-05T22:42:53.793Z,9.60
2023-01-05T22:45:23.565Z,7.43
2023-01-05T22:47:52.093Z,5.90
2023-01-05T22:50:20.547Z,5.30
2023-01-05T22:52:49.715Z,7.37
2023-01-05T22:55:18.277Z,13.77
2023-01-05T22:57:46.717Z,10.20
2023-01-05T23:00:15.791Z,7.67
2023-01-05T23:02:45.668Z,6.87
2023-01-05T23:05:14.453Z,10.10
2023-01-05T23:07:43.455Z,11.70
2023-01-05T23:10:12.154Z,9.20
2023-01-05T23:12:40.634Z,8.13
2023-01-05T23:15:09.937Z,10.00
2023-01-05T23:17:38.361Z,9.00
2023-01-05T23:20:09.973Z,5.13
2023-01-05T23:22:38.484Z,6.73
2023-01-05T23:25:07.349Z,7.50
2023-01-05T23:27:36.241Z,8.70
2023-01-05T23:30:05.162Z,5.37
2023-01-05T23:32:33.782Z,10.37
2023-01-05T23:35:02.231Z,10.37
2023-01-05T23:37:32.048Z,8.77
2023-01-05T23:40:00.507Z,9.13
2023-01-05T23:42:47.218Z,9.40
2023-01-05T23:45:15.977Z,6.00
2023-01-05T23:47:44.452Z,16.13
2023-01-05T23:50:12.920Z,7.40
2023-01-05T23:52:42.795Z,8.13
2023-01-05T23:55:11.312Z,11.10
2023-01-05T23:57:39.827Z,8.90
